sensor_id;sensor_type;location;lat;lon;timestamp;pressure;altitude;pressure_sealevel;temperature;humidity
76730;BME280;65653;53.106;18.046;2023-09-08T00:01:45;101776.24;;;16.06;91.36
76730;BME280;65653;53.106;18.046;2023-09-08T00:04:12;101777.39;;;16.02;91.54
76730;BME280;65653;53.106;18.046;2023-09-08T00:06:39;101774.86;;;15.98;91.46
76730;BME280;65653;53.106;18.046;2023-09-08T00:09:05;101776.62;;;15.92;91.37
76730;BME280;65653;53.106;18.046;2023-09-08T00:11:32;101775.93;;;15.87;92.10
76730;BME280;65653;53.106;18.046;2023-09-08T00:13:58;101776.44;;;15.84;92.32
76730;BME280;65653;53.106;18.046;2023-09-08T00:16:25;101774.52;;;15.85;92.96
76730;BME280;65653;53.106;18.046;2023-09-08T00:18:51;101772.62;;;15.85;92.82
76730;BME280;65653;53.106;18.046;2023-09-08T00:21:17;101770.48;;;15.84;92.77
76730;BME280;65653;53.106;18.046;2023-09-08T00:23:44;101768.75;;;15.83;93.22
76730;BME280;65653;53.106;18.046;2023-09-08T00:26:10;101767.03;;;15.82;93.06
76730;BME280;65653;53.106;18.046;2023-09-08T00:28:37;101768.44;;;15.82;93.12
76730;BME280;65653;53.106;18.046;2023-09-08T00:31:04;101773.98;;;15.81;93.18
76730;BME280;65653;53.106;18.046;2023-09-08T00:33:31;101769.16;;;15.77;93.21
76730;BME280;65653;53.106;18.046;2023-09-08T00:35:57;101768.99;;;15.72;93.05
76730;BME280;65653;53.106;18.046;2023-09-08T00:38:25;101764.48;;;15.66;93.08
76730;BME280;65653;53.106;18.046;2023-09-08T00:40:51;101766.27;;;15.60;93.38
76730;BME280;65653;53.106;18.046;2023-09-08T00:43:18;101769.05;;;15.56;93.77
76730;BME280;65653;53.106;18.046;2023-09-08T00:45:45;101770.95;;;15.52;93.43
76730;BME280;65653;53.106;18.046;2023-09-08T00:48:12;101772.74;;;15.48;93.24
76730;BME280;65653;53.106;18.046;2023-09-08T00:50:39;101777.05;;;15.44;93.25
76730;BME280;65653;53.106;18.046;2023-09-08T00:53:06;101775.09;;;15.41;93.44
76730;BME280;65653;53.106;18.046;2023-09-08T00:55:34;101771.52;;;15.41;94.00
76730;BME280;65653;53.106;18.046;2023-09-08T00:58:01;101773.77;;;15.39;94.18
76730;BME280;65653;53.106;18.046;2023-09-08T01:00:28;101771.98;;;15.38;93.86
76730;BME280;65653;53.106;18.046;2023-09-08T01:02:55;101770.17;;;15.34;94.05
76730;BME280;65653;53.106;18.046;2023-09-08T01:05:21;101770.64;;;15.31;94.04
76730;BME280;65653;53.106;18.046;2023-09-08T01:07:48;101767.23;;;15.25;94.17
76730;BME280;65653;53.106;18.046;2023-09-08T01:10:15;101768.07;;;15.19;94.46
76730;BME280;65653;53.106;18.046;2023-09-08T01:12:41;101768.86;;;15.14;94.69
76730;BME280;65653;53.106;18.046;2023-09-08T01:15:08;101769.07;;;15.10;94.85
76730;BME280;65653;53.106;18.046;2023-09-08T01:17:35;101767.81;;;15.06;94.93
76730;BME280;65653;53.106;18.046;2023-09-08T01:20:06;101765.61;;;15.03;95.25
76730;BME280;65653;53.106;18.046;2023-09-08T01:25:18;101772.73;;;14.99;95.26
76730;BME280;65653;53.106;18.046;2023-09-08T01:27:49;101768.59;;;14.95;95.50
76730;BME280;65653;53.106;18.046;2023-09-08T01:30:17;101767.80;;;14.92;95.70
76730;BME280;65653;53.106;18.046;2023-09-08T01:32:44;101771.48;;;14.92;95.95
76730;BME280;65653;53.106;18.046;2023-09-08T01:35:11;101768.52;;;14.91;95.83
76730;BME280;65653;53.106;18.046;2023-09-08T01:37:40;101765.02;;;14.90;95.90
76730;BME280;65653;53.106;18.046;2023-09-08T01:40:08;101762.65;;;14.90;96.30
76730;BME280;65653;53.106;18.046;2023-09-08T01:42:35;101763.41;;;14.90;96.15
76730;BME280;65653;53.106;18.046;2023-09-08T01:45:01;101761.72;;;14.86;96.07
76730;BME280;65653;53.106;18.046;2023-09-08T01:47:29;101761.84;;;14.83;96.24
76730;BME280;65653;53.106;18.046;2023-09-08T01:49:56;101759.27;;;14.83;96.86
76730;BME280;65653;53.106;18.046;2023-09-08T01:52:24;101761.16;;;14.83;97.02
76730;BME280;65653;53.106;18.046;2023-09-08T01:54:51;101762.30;;;14.81;96.47
76730;BME280;65653;53.106;18.046;2023-09-08T01:57:18;101759.07;;;14.77;96.48
76730;BME280;65653;53.106;18.046;2023-09-08T01:59:44;101754.84;;;14.72;95.97
76730;BME280;65653;53.106;18.046;2023-09-08T02:02:11;101757.97;;;14.67;96.05
76730;BME280;65653;53.106;18.046;2023-09-08T02:04:37;101759.99;;;14.61;96.07
76730;BME280;65653;53.106;18.046;2023-09-08T02:07:04;101754.84;;;14.57;96.50
76730;BME280;65653;53.106;18.046;2023-09-08T02:09:35;101758.81;;;14.55;96.71
76730;BME280;65653;53.106;18.046;2023-09-08T02:12:03;101757.17;;;14.55;96.90
76730;BME280;65653;53.106;18.046;2023-09-08T02:14:30;101758.88;;;14.53;96.81
76730;BME280;65653;53.106;18.046;2023-09-08T02:16:57;101756.43;;;14.52;97.18
76730;BME280;65653;53.106;18.046;2023-09-08T02:19:23;101756.95;;;14.52;97.71
76730;BME280;65653;53.106;18.046;2023-09-08T02:21:50;101756.65;;;14.52;97.58
76730;BME280;65653;53.106;18.046;2023-09-08T02:24:16;101751.98;;;14.51;97.46
76730;BME280;65653;53.106;18.046;2023-09-08T02:26:44;101752.90;;;14.50;97.67
76730;BME280;65653;53.106;18.046;2023-09-08T02:29:10;101751.45;;;14.52;97.84
76730;BME280;65653;53.106;18.046;2023-09-08T02:31:37;101754.30;;;14.53;98.15
76730;BME280;65653;53.106;18.046;2023-09-08T02:34:03;101753.27;;;14.53;98.25
76730;BME280;65653;53.106;18.046;2023-09-08T02:36:30;101750.02;;;14.54;98.49
76730;BME280;65653;53.106;18.046;2023-09-08T02:38:57;101749.97;;;14.56;98.74
76730;BME280;65653;53.106;18.046;2023-09-08T02:41:23;101750.41;;;14.56;98.32
76730;BME280;65653;53.106;18.046;2023-09-08T02:43:50;101749.30;;;14.57;98.45
76730;BME280;65653;53.106;18.046;2023-09-08T02:46:16;101748.17;;;14.55;98.29
76730;BME280;65653;53.106;18.046;2023-09-08T02:48:43;101745.38;;;14.54;98.30
76730;BME280;65653;53.106;18.046;2023-09-08T02:51:09;101747.23;;;14.53;98.30
76730;BME280;65653;53.106;18.046;2023-09-08T02:53:35;101745.02;;;14.51;98.47
76730;BME280;65653;53.106;18.046;2023-09-08T02:56:02;101742.66;;;14.49;98.35
76730;BME280;65653;53.106;18.046;2023-09-08T02:58:29;101742.16;;;14.46;98.29
76730;BME280;65653;53.106;18.046;2023-09-08T03:00:56;101739.70;;;14.43;98.40
76730;BME280;65653;53.106;18.046;2023-09-08T03:03:23;101737.36;;;14.39;98.27
76730;BME280;65653;53.106;18.046;2023-09-08T03:05:53;101739.10;;;14.36;98.23
76730;BME280;65653;53.106;18.046;2023-09-08T03:08:22;101740.81;;;14.35;98.77
76730;BME280;65653;53.106;18.046;2023-09-08T03:10:49;101737.71;;;14.34;98.72
76730;BME280;65653;53.106;18.046;2023-09-08T03:13:15;101737.96;;;14.34;98.84
76730;BME280;65653;53.106;18.046;2023-09-08T03:15:42;101736.77;;;14.33;98.79
76730;BME280;65653;53.106;18.046;2023-09-08T03:18:08;101731.37;;;14.30;98.32
76730;BME280;65653;53.106;18.046;2023-09-08T03:20:35;101734.70;;;14.26;98.29
76730;BME280;65653;53.106;18.046;2023-09-08T03:23:01;101729.44;;;14.20;98.24
76730;BME280;65653;53.106;18.046;2023-09-08T03:25:28;101728.09;;;14.17;98.64
76730;BME280;65653;53.106;18.046;2023-09-08T03:27:54;101728.26;;;14.15;98.92
76730;BME280;65653;53.106;18.046;2023-09-08T03:30:20;101730.09;;;14.13;98.74
76730;BME280;65653;53.106;18.046;2023-09-08T03:32:47;101731.69;;;14.10;99.03
76730;BME280;65653;53.106;18.046;2023-09-08T03:35:13;101735.24;;;14.09;99.09
76730;BME280;65653;53.106;18.046;2023-09-08T03:37:40;101730.94;;;14.08;99.32
76730;BME280;65653;53.106;18.046;2023-09-08T03:40:07;101732.59;;;14.09;99.84
76730;BME280;65653;53.106;18.046;2023-09-08T03:42:33;101734.57;;;14.11;99.99
76730;BME280;65653;53.106;18.046;2023-09-08T03:45:01;101732.97;;;14.10;99.97
76730;BME280;65653;53.106;18.046;2023-09-08T03:47:27;101728.52;;;14.11;99.99
76730;BME280;65653;53.106;18.046;2023-09-08T03:49:54;101730.40;;;14.10;99.99
76730;BME280;65653;53.106;18.046;2023-09-08T03:52:20;101731.73;;;14.10;100.00
76730;BME280;65653;53.106;18.046;2023-09-08T03:54:47;101737.94;;;14.08;100.00
76730;BME280;65653;53.106;18.046;2023-09-08T03:57:13;101734.33;;;14.06;100.00
76730;BME280;65653;53.106;18.046;2023-09-08T03:59:40;101731.75;;;14.00;99.94
76730;BME280;65653;53.106;18.046;2023-09-08T04:02:06;101732.39;;;13.96;99.89
76730;BME280;65653;53.106;18.046;2023-09-08T04:04:32;101731.09;;;13.94;99.99
76730;BME280;65653;53.106;18.046;2023-09-08T04:06:59;101734.16;;;13.92;99.99
76730;BME280;65653;53.106;18.046;2023-09-08T04:09:25;101735.73;;;13.90;99.95
76730;BME280;65653;53.106;18.046;2023-09-08T04:11:54;101735.87;;;13.91;100.00
76730;BME280;65653;53.106;18.046;2023-09-08T04:14:21;101740.41;;;13.91;100.00
76730;BME280;65653;53.106;18.046;2023-09-08T04:16:49;101738.44;;;13.92;100.00
76730;BME280;65653;53.106;18.046;2023-09-08T04:19:16;101736.98;;;13.92;100.00
76730;BME280;65653;53.106;18.046;2023-09-08T04:21:42;101737.19;;;13.94;100.00
76730;BME280;65653;53.106;18.046;2023-09-08T04:24:09;101735.90;;;13.95;100.00
76730;BME280;65653;53.106;18.046;2023-09-08T04:26:37;101735.22;;;13.95;100.00
76730;BME280;65653;53.106;18.046;2023-09-08T04:29:03;101735.23;;;13.97;100.00
76730;BME280;65653;53.106;18.046;2023-09-08T04:31:30;101736.66;;;13.97;100.00
76730;BME280;65653;53.106;18.046;2023-09-08T04:33:57;101733.52;;;13.97;100.00
76730;BME280;65653;53.106;18.046;2023-09-08T04:36:23;101734.69;;;13.98;100.00
76730;BME280;65653;53.106;18.046;2023-09-08T04:38:49;101731.45;;;14.00;100.00
76730;BME280;65653;53.106;18.046;2023-09-08T04:41:16;101734.50;;;14.02;99.96
76730;BME280;65653;53.106;18.046;2023-09-08T04:43:42;101734.88;;;14.03;99.66
76730;BME280;65653;53.106;18.046;2023-09-08T04:46:09;101741.00;;;14.06;99.80
76730;BME280;65653;53.106;18.046;2023-09-08T04:48:35;101739.16;;;14.10;99.80
76730;BME280;65653;53.106;18.046;2023-09-08T04:51:02;101742.23;;;14.15;99.80
76730;BME280;65653;53.106;18.046;2023-09-08T04:53:28;101740.79;;;14.19;99.41
76730;BME280;65653;53.106;18.046;2023-09-08T04:55:54;101742.78;;;14.22;99.17
76730;BME280;65653;53.106;18.046;2023-09-08T04:58:21;101740.41;;;14.26;99.20
76730;BME280;65653;53.106;18.046;2023-09-08T05:00:48;101744.32;;;14.31;98.97
76730;BME280;65653;53.106;18.046;2023-09-08T05:03:15;101741.58;;;14.35;98.42
76730;BME280;65653;53.106;18.046;2023-09-08T05:05:42;101739.34;;;14.41;98.30
76730;BME280;65653;53.106;18.046;2023-09-08T05:08:08;101738.99;;;14.48;98.27
76730;BME280;65653;53.106;18.046;2023-09-08T05:10:35;101743.67;;;14.56;98.15
76730;BME280;65653;53.106;18.046;2023-09-08T05:13:01;101743.08;;;14.64;98.14
76730;BME280;65653;53.106;18.046;2023-09-08T05:15:27;101741.75;;;14.72;97.90
76730;BME280;65653;53.106;18.046;2023-09-08T05:17:54;101744.19;;;14.81;98.10
76730;BME280;65653;53.106;18.046;2023-09-08T05:20:20;101744.15;;;14.91;97.69
76730;BME280;65653;53.106;18.046;2023-09-08T05:22:47;101741.91;;;15.01;97.42
76730;BME280;65653;53.106;18.046;2023-09-08T05:25:13;101738.72;;;15.09;97.54
76730;BME280;65653;53.106;18.046;2023-09-08T05:27:39;101743.70;;;15.17;97.15
76730;BME280;65653;53.106;18.046;2023-09-08T05:30:07;101741.16;;;15.27;96.71
76730;BME280;65653;53.106;18.046;2023-09-08T05:32:34;101744.89;;;15.38;96.66
76730;BME280;65653;53.106;18.046;2023-09-08T05:35:00;101738.55;;;15.48;96.38
76730;BME280;65653;53.106;18.046;2023-09-08T05:37:26;101740.98;;;15.57;96.14
76730;BME280;65653;53.106;18.046;2023-09-08T05:39:53;101745.27;;;15.69;95.90
76730;BME280;65653;53.106;18.046;2023-09-08T05:42:19;101743.56;;;15.80;95.44
76730;BME280;65653;53.106;18.046;2023-09-08T05:44:46;101744.16;;;15.90;94.93
76730;BME280;65653;53.106;18.046;2023-09-08T05:47:14;101751.42;;;16.00;94.72
76730;BME280;65653;53.106;18.046;2023-09-08T05:49:40;101751.13;;;16.10;94.54
76730;BME280;65653;53.106;18.046;2023-09-08T05:52:07;101749.44;;;16.19;94.06
76730;BME280;65653;53.106;18.046;2023-09-08T05:54:37;101748.42;;;16.27;93.53
76730;BME280;65653;53.106;18.046;2023-09-08T05:57:03;101744.95;;;16.35;92.89
76730;BME280;65653;53.106;18.046;2023-09-08T05:59:30;101748.02;;;16.44;92.25
76730;BME280;65653;53.106;18.046;2023-09-08T06:01:56;101746.34;;;16.53;92.08
76730;BME280;65653;53.106;18.046;2023-09-08T06:04:22;101748.56;;;16.63;91.43
76730;BME280;65653;53.106;18.046;2023-09-08T06:06:49;101746.98;;;16.70;91.28
76730;BME280;65653;53.106;18.046;2023-09-08T06:09:15;101746.07;;;16.76;90.92
76730;BME280;65653;53.106;18.046;2023-09-08T06:11:42;101744.05;;;16.86;90.79
76730;BME280;65653;53.106;18.046;2023-09-08T06:14:09;101745.55;;;16.98;90.32
76730;BME280;65653;53.106;18.046;2023-09-08T06:16:35;101737.60;;;17.13;89.91
76730;BME280;65653;53.106;18.046;2023-09-08T06:19:03;101737.34;;;17.28;89.50
76730;BME280;65653;53.106;18.046;2023-09-08T06:21:30;101734.39;;;17.40;88.90
76730;BME280;65653;53.106;18.046;2023-09-08T06:23:56;101728.48;;;17.54;88.34
76730;BME280;65653;53.106;18.046;2023-09-08T06:26:23;101729.83;;;17.67;87.66
76730;BME280;65653;53.106;18.046;2023-09-08T06:28:50;101726.62;;;17.80;87.72
76730;BME280;65653;53.106;18.046;2023-09-08T06:31:16;101723.79;;;17.94;87.29
76730;BME280;65653;53.106;18.046;2023-09-08T06:33:43;101722.14;;;18.09;86.70
76730;BME280;65653;53.106;18.046;2023-09-08T06:36:09;101722.16;;;18.25;86.10
76730;BME280;65653;53.106;18.046;2023-09-08T06:38:36;101724.11;;;18.36;86.00
76730;BME280;65653;53.106;18.046;2023-09-08T06:41:08;101727.33;;;18.49;85.50
76730;BME280;65653;53.106;18.046;2023-09-08T06:43:35;101728.10;;;18.61;84.03
76730;BME280;65653;53.106;18.046;2023-09-08T06:46:02;101729.81;;;18.73;84.12
76730;BME280;65653;53.106;18.046;2023-09-08T06:48:29;101725.34;;;18.86;83.64
76730;BME280;65653;53.106;18.046;2023-09-08T06:50:56;101724.95;;;18.99;82.39
76730;BME280;65653;53.106;18.046;2023-09-08T06:53:23;101722.83;;;19.12;82.10
76730;BME280;65653;53.106;18.046;2023-09-08T06:55:49;101723.16;;;19.23;82.65
76730;BME280;65653;53.106;18.046;2023-09-08T06:58:16;101723.39;;;19.38;82.10
76730;BME280;65653;53.106;18.046;2023-09-08T07:00:42;101718.72;;;19.51;80.88
76730;BME280;65653;53.106;18.046;2023-09-08T07:03:09;101714.77;;;19.59;79.60
76730;BME280;65653;53.106;18.046;2023-09-08T07:05:35;101716.16;;;19.69;80.27
76730;BME280;65653;53.106;18.046;2023-09-08T07:08:02;101714.92;;;19.84;80.34
76730;BME280;65653;53.106;18.046;2023-09-08T07:10:28;101714.08;;;20.01;80.03
76730;BME280;65653;53.106;18.046;2023-09-08T07:12:55;101713.96;;;20.17;79.17
76730;BME280;65653;53.106;18.046;2023-09-08T07:15:21;101712.67;;;20.30;78.38
76730;BME280;65653;53.106;18.046;2023-09-08T07:17:47;101712.02;;;20.45;77.99
76730;BME280;65653;53.106;18.046;2023-09-08T07:20:14;101709.23;;;20.61;77.59
76730;BME280;65653;53.106;18.046;2023-09-08T07:22:40;101708.27;;;20.76;76.99
76730;BME280;65653;53.106;18.046;2023-09-08T07:25:07;101710.71;;;20.89;76.21
76730;BME280;65653;53.106;18.046;2023-09-08T07:27:35;101710.58;;;21.04;74.86
76730;BME280;65653;53.106;18.046;2023-09-08T07:30:04;101710.10;;;21.18;75.93
76730;BME280;65653;53.106;18.046;2023-09-08T07:32:32;101705.83;;;21.34;75.15
76730;BME280;65653;53.106;18.046;2023-09-08T07:34:58;101705.93;;;21.49;74.76
76730;BME280;65653;53.106;18.046;2023-09-08T07:37:25;101706.56;;;21.62;73.92
76730;BME280;65653;53.106;18.046;2023-09-08T07:39:51;101708.27;;;21.77;73.66
76730;BME280;65653;53.106;18.046;2023-09-08T07:42:18;101711.31;;;21.99;74.19
76730;BME280;65653;53.106;18.046;2023-09-08T07:44:45;101713.08;;;22.20;72.76
76730;BME280;65653;53.106;18.046;2023-09-08T07:47:12;101712.59;;;22.39;72.59
76730;BME280;65653;53.106;18.046;2023-09-08T07:49:38;101712.95;;;22.58;70.90
76730;BME280;65653;53.106;18.046;2023-09-08T07:52:05;101707.20;;;22.70;69.08
76730;BME280;65653;53.106;18.046;2023-09-08T07:54:33;101709.95;;;22.84;68.99
76730;BME280;65653;53.106;18.046;2023-09-08T07:57:00;101704.35;;;23.14;67.88
76730;BME280;65653;53.106;18.046;2023-09-08T07:59:26;101703.75;;;23.83;66.49
76730;BME280;65653;53.106;18.046;2023-09-08T08:01:53;101701.63;;;24.46;65.05
76730;BME280;65653;53.106;18.046;2023-09-08T08:04:20;101697.95;;;25.07;63.94
76730;BME280;65653;53.106;18.046;2023-09-08T08:06:46;101697.23;;;25.61;61.33
76730;BME280;65653;53.106;18.046;2023-09-08T08:09:13;101698.25;;;26.18;60.68
76730;BME280;65653;53.106;18.046;2023-09-08T08:11:41;101695.47;;;26.68;58.35
76730;BME280;65653;53.106;18.046;2023-09-08T08:14:08;101692.52;;;27.16;56.66
76730;BME280;65653;53.106;18.046;2023-09-08T08:16:34;101686.24;;;27.70;55.61
76730;BME280;65653;53.106;18.046;2023-09-08T08:19:02;101686.39;;;28.25;54.77
76730;BME280;65653;53.106;18.046;2023-09-08T08:21:29;101687.20;;;28.64;53.53
76730;BME280;65653;53.106;18.046;2023-09-08T08:23:56;101682.60;;;29.06;53.55
76730;BME280;65653;53.106;18.046;2023-09-08T08:26:22;101682.23;;;29.72;53.87
76730;BME280;65653;53.106;18.046;2023-09-08T08:28:53;101680.39;;;30.39;50.98
76730;BME280;65653;53.106;18.046;2023-09-08T08:31:20;101679.34;;;30.70;47.45
76730;BME280;65653;53.106;18.046;2023-09-08T08:33:47;101681.08;;;30.93;48.03
76730;BME280;65653;53.106;18.046;2023-09-08T08:36:13;101680.51;;;31.30;47.36
76730;BME280;65653;53.106;18.046;2023-09-08T08:38:40;101670.38;;;31.60;46.14
76730;BME280;65653;53.106;18.046;2023-09-08T08:41:07;101666.27;;;32.13;44.47
76730;BME280;65653;53.106;18.046;2023-09-08T08:43:34;101665.14;;;32.68;43.52
76730;BME280;65653;53.106;18.046;2023-09-08T08:46:02;101661.39;;;33.25;43.11
76730;BME280;65653;53.106;18.046;2023-09-08T08:48:29;101653.91;;;33.76;41.75
76730;BME280;65653;53.106;18.046;2023-09-08T08:50:59;101651.91;;;34.16;39.32
76730;BME280;65653;53.106;18.046;2023-09-08T08:53:26;101654.23;;;34.35;37.69
76730;BME280;65653;53.106;18.046;2023-09-08T08:55:56;101653.54;;;34.61;36.28
76730;BME280;65653;53.106;18.046;2023-09-08T08:58:25;101652.30;;;34.89;35.98
76730;BME280;65653;53.106;18.046;2023-09-08T09:00:54;101652.80;;;35.16;36.25
76730;BME280;65653;53.106;18.046;2023-09-08T09:03:26;101648.73;;;35.79;33.47
76730;BME280;65653;53.106;18.046;2023-09-08T09:05:54;101643.57;;;35.88;29.92
76730;BME280;65653;53.106;18.046;2023-09-08T09:08:22;101639.47;;;35.82;31.22
76730;BME280;65653;53.106;18.046;2023-09-08T09:10:51;101638.56;;;36.09;30.96
76730;BME280;65653;53.106;18.046;2023-09-08T09:13:18;101643.21;;;36.34;30.74
76730;BME280;65653;53.106;18.046;2023-09-08T09:15:45;101636.90;;;36.38;30.32
76730;BME280;65653;53.106;18.046;2023-09-08T09:18:13;101639.70;;;36.33;29.03
76730;BME280;65653;53.106;18.046;2023-09-08T09:20:40;101643.70;;;36.51;28.36
76730;BME280;65653;53.106;18.046;2023-09-08T09:23:07;101640.88;;;37.07;27.94
76730;BME280;65653;53.106;18.046;2023-09-08T09:25:34;101639.15;;;37.43;28.50
76730;BME280;65653;53.106;18.046;2023-09-08T09:28:02;101636.29;;;37.62;28.40
76730;BME280;65653;53.106;18.046;2023-09-08T09:30:47;101634.91;;;37.97;28.00
76730;BME280;65653;53.106;18.046;2023-09-08T09:33:14;101632.94;;;37.87;25.93
76730;BME280;65653;53.106;18.046;2023-09-08T09:35:48;101630.39;;;36.85;26.58
76730;BME280;65653;53.106;18.046;2023-09-08T09:38:19;101627.96;;;37.40;26.26
76730;BME280;65653;53.106;18.046;2023-09-08T09:40:48;101628.14;;;37.50;23.96
76730;BME280;65653;53.106;18.046;2023-09-08T09:43:16;101629.94;;;37.55;24.20
76730;BME280;65653;53.106;18.046;2023-09-08T09:45:43;101623.30;;;37.80;24.14
76730;BME280;65653;53.106;18.046;2023-09-08T09:48:11;101624.05;;;38.01;24.19
76730;BME280;65653;53.106;18.046;2023-09-08T09:50:40;101623.71;;;38.71;23.85
76730;BME280;65653;53.106;18.046;2023-09-08T09:53:14;101627.61;;;39.21;23.55
76730;BME280;65653;53.106;18.046;2023-09-08T09:55:43;101622.17;;;39.57;23.20
76730;BME280;65653;53.106;18.046;2023-09-08T09:58:11;101615.56;;;40.20;22.06
76730;BME280;65653;53.106;18.046;2023-09-08T10:00:39;101614.70;;;40.43;21.87
76730;BME280;65653;53.106;18.046;2023-09-08T10:03:07;101608.87;;;40.59;21.27
76730;BME280;65653;53.106;18.046;2023-09-08T10:05:34;101606.27;;;40.76;21.52
76730;BME280;65653;53.106;18.046;2023-09-08T10:08:01;101610.10;;;40.90;20.87
76730;BME280;65653;53.106;18.046;2023-09-08T10:10:27;101603.80;;;41.05;20.92
76730;BME280;65653;53.106;18.046;2023-09-08T10:13:02;101603.99;;;41.32;20.39
76730;BME280;65653;53.106;18.046;2023-09-08T10:15:30;101606.61;;;41.56;20.18
76730;BME280;65653;53.106;18.046;2023-09-08T10:17:57;101602.09;;;41.96;20.04
76730;BME280;65653;53.106;18.046;2023-09-08T10:20:27;101597.02;;;42.22;19.28
76730;BME280;65653;53.106;18.046;2023-09-08T10:23:07;101590.61;;;42.09;20.26
76730;BME280;65653;53.106;18.046;2023-09-08T10:25:41;101591.39;;;42.38;20.17
76730;BME280;65653;53.106;18.046;2023-09-08T10:28:09;101589.69;;;41.83;20.11
76730;BME280;65653;53.106;18.046;2023-09-08T10:30:36;101593.54;;;41.66;19.49
76730;BME280;65653;53.106;18.046;2023-09-08T10:33:03;101588.57;;;42.42;19.03
76730;BME280;65653;53.106;18.046;2023-09-08T10:35:31;101589.81;;;42.89;18.36
76730;BME280;65653;53.106;18.046;2023-09-08T10:38:30;101589.95;;;42.96;18.08
76730;BME280;65653;53.106;18.046;2023-09-08T10:43:43;101583.95;;;43.15;19.03
76730;BME280;65653;53.106;18.046;2023-09-08T10:46:12;101584.05;;;43.42;17.91
76730;BME280;65653;53.106;18.046;2023-09-08T10:48:47;101579.15;;;43.89;16.69
76730;BME280;65653;53.106;18.046;2023-09-08T10:51:14;101577.85;;;43.78;17.29
76730;BME280;65653;53.106;18.046;2023-09-08T10:53:42;101575.58;;;44.12;17.26
76730;BME280;65653;53.106;18.046;2023-09-08T10:56:08;101575.77;;;43.97;17.50
76730;BME280;65653;53.106;18.046;2023-09-08T10:58:36;101570.79;;;43.87;17.02
76730;BME280;65653;53.106;18.046;2023-09-08T11:01:05;101570.23;;;43.74;17.07
76730;BME280;65653;53.106;18.046;2023-09-08T11:03:52;101568.94;;;43.27;17.23
76730;BME280;65653;53.106;18.046;2023-09-08T11:06:20;101562.98;;;43.31;17.04
76730;BME280;65653;53.106;18.046;2023-09-08T11:09:06;101563.39;;;43.74;17.73
76730;BME280;65653;53.106;18.046;2023-09-08T11:11:33;101565.41;;;43.22;17.14
76730;BME280;65653;53.106;18.046;2023-09-08T11:13:59;101564.02;;;43.01;17.63
76730;BME280;65653;53.106;18.046;2023-09-08T11:16:26;101555.13;;;42.76;17.42
76730;BME280;65653;53.106;18.046;2023-09-08T11:18:57;101553.27;;;43.40;17.36
76730;BME280;65653;53.106;18.046;2023-09-08T11:21:24;101547.70;;;43.55;17.72
76730;BME280;65653;53.106;18.046;2023-09-08T11:23:50;101546.16;;;43.35;17.51
76730;BME280;65653;53.106;18.046;2023-09-08T11:26:17;101546.05;;;43.18;17.72
76730;BME280;65653;53.106;18.046;2023-09-08T11:28:45;101546.36;;;43.03;17.57
76730;BME280;65653;53.106;18.046;2023-09-08T11:31:14;101541.51;;;43.14;18.09
76730;BME280;65653;53.106;18.046;2023-09-08T11:33:40;101544.86;;;43.38;17.76
76730;BME280;65653;53.106;18.046;2023-09-08T11:36:12;101535.77;;;43.56;18.13
76730;BME280;65653;53.106;18.046;2023-09-08T11:38:42;101540.20;;;43.71;17.53
76730;BME280;65653;53.106;18.046;2023-09-08T11:41:09;101536.27;;;43.54;17.72
76730;BME280;65653;53.106;18.046;2023-09-08T11:43:36;101532.66;;;43.36;17.90
76730;BME280;65653;53.106;18.046;2023-09-08T11:46:03;101532.32;;;43.32;18.13
76730;BME280;65653;53.106;18.046;2023-09-08T11:48:31;101532.95;;;43.29;17.82
76730;BME280;65653;53.106;18.046;2023-09-08T11:50:57;101533.92;;;43.13;18.11
76730;BME280;65653;53.106;18.046;2023-09-08T11:53:25;101529.27;;;42.91;18.27
76730;BME280;65653;53.106;18.046;2023-09-08T11:55:52;101525.63;;;43.17;18.44
76730;BME280;65653;53.106;18.046;2023-09-08T11:58:19;101519.48;;;44.14;18.11
76730;BME280;65653;53.106;18.046;2023-09-08T12:00:46;101520.52;;;44.29;17.68
76730;BME280;65653;53.106;18.046;2023-09-08T12:03:15;101522.81;;;43.24;17.54
76730;BME280;65653;53.106;18.046;2023-09-08T12:05:44;101520.51;;;42.52;18.70
76730;BME280;65653;53.106;18.046;2023-09-08T12:08:16;101521.60;;;42.72;18.58
76730;BME280;65653;53.106;18.046;2023-09-08T12:10:43;101517.59;;;42.51;18.60
76730;BME280;65653;53.106;18.046;2023-09-08T12:13:09;101512.02;;;43.03;18.42
76730;BME280;65653;53.106;18.046;2023-09-08T12:15:38;101502.84;;;43.78;17.30
76730;BME280;65653;53.106;18.046;2023-09-08T12:18:12;101505.77;;;44.38;16.87
76730;BME280;65653;53.106;18.046;2023-09-08T12:20:41;101501.02;;;44.81;16.66
76730;BME280;65653;53.106;18.046;2023-09-08T12:23:19;101497.68;;;45.19;16.75
76730;BME280;65653;53.106;18.046;2023-09-08T12:25:49;101492.02;;;45.43;15.93
76730;BME280;65653;53.106;18.046;2023-09-08T12:28:19;101492.23;;;45.35;15.82
76730;BME280;65653;53.106;18.046;2023-09-08T12:30:45;101493.25;;;45.49;15.98
76730;BME280;65653;53.106;18.046;2023-09-08T12:33:13;101492.36;;;45.80;16.09
76730;BME280;65653;53.106;18.046;2023-09-08T12:35:45;101487.47;;;45.30;16.64
76730;BME280;65653;53.106;18.046;2023-09-08T12:38:13;101485.86;;;45.00;16.61
76730;BME280;65653;53.106;18.046;2023-09-08T12:40:39;101483.16;;;45.20;15.97
76730;BME280;65653;53.106;18.046;2023-09-08T12:43:06;101481.70;;;45.32;16.08
76730;BME280;65653;53.106;18.046;2023-09-08T12:45:33;101477.65;;;45.62;15.81
76730;BME280;65653;53.106;18.046;2023-09-08T12:48:01;101475.92;;;45.88;15.64